HLT weather

Hamilton Airport
Victoria, Australia

Public forecast

Using degrees Celsius for public forecast. Weather courtesy of forecast.io.

Closest aviation weather report (METAR) to Hamilton Airport

Closest report is Mount Gambier Airport, 61.1 nm (113.1 km) W. Retrieved 2020/07/11 17:30 UTC (0 seconds ago):

YMTG 111730Z AUTO 25004KT 0500 // ////// 06/06 Q1017

Closest aviation forecast (TAF) to Hamilton Airport

Forecast is more than 6 hours old.

Closest forecast is Avalon Airport, 116.4 nm (215.5 km) ESE. Retrieved 2020/07/11 06:00 UTC (11 hours ago):

TAF YMAV 110513Z 1106/1206 19008KT 9999 -SHRA SCT010 BKN050 FM110800 15005KT 9999 -SHRA SCT010 BKN020 FM112000 14010KT 9999 -SHRA BKN030 INTER 1106/1108 4000 SHRA BKN010 TEMPO 1108/1121 4000 SHRA BKN010